sensor_id;sensor_type;location;lat;lon;timestamp;P1;durP1;ratioP1;P2;durP2;ratioP2
26211;SDS011;13951;49.516;6.094;2022-12-18T00:01:19;15.80;;;5.13;;
26211;SDS011;13951;49.516;6.094;2022-12-18T00:03:53;11.20;;;5.57;;
26211;SDS011;13951;49.516;6.094;2022-12-18T00:06:28;8.23;;;4.87;;
26211;SDS011;13951;49.516;6.094;2022-12-18T00:09:02;8.97;;;5.33;;
26211;SDS011;13951;49.516;6.094;2022-12-18T00:11:35;11.33;;;6.10;;
26211;SDS011;13951;49.516;6.094;2022-12-18T00:14:08;13.67;;;5.13;;
26211;SDS011;13951;49.516;6.094;2022-12-18T00:16:45;9.00;;;5.23;;
26211;SDS011;13951;49.516;6.094;2022-12-18T00:19:18;7.87;;;4.17;;
26211;SDS011;13951;49.516;6.094;2022-12-18T00:21:51;8.83;;;4.53;;
26211;SDS011;13951;49.516;6.094;2022-12-18T00:24:25;11.33;;;5.20;;
26211;SDS011;13951;49.516;6.094;2022-12-18T00:26:58;9.97;;;5.13;;
26211;SDS011;13951;49.516;6.094;2022-12-18T00:29:31;11.13;;;6.33;;
26211;SDS011;13951;49.516;6.094;2022-12-18T00:32:04;9.80;;;5.80;;
26211;SDS011;13951;49.516;6.094;2022-12-18T00:34:37;8.10;;;4.77;;
26211;SDS011;13951;49.516;6.094;2022-12-18T00:37:10;14.53;;;5.83;;
26211;SDS011;13951;49.516;6.094;2022-12-18T00:39:50;8.00;;;5.00;;
26211;SDS011;13951;49.516;6.094;2022-12-18T00:42:24;9.60;;;4.53;;
26211;SDS011;13951;49.516;6.094;2022-12-18T00:45:36;10.97;;;4.90;;
26211;SDS011;13951;49.516;6.094;2022-12-18T00:48:09;20.93;;;10.17;;
26211;SDS011;13951;49.516;6.094;2022-12-18T00:50:42;13.27;;;6.20;;
26211;SDS011;13951;49.516;6.094;2022-12-18T00:53:15;14.43;;;6.23;;
26211;SDS011;13951;49.516;6.094;2022-12-18T00:55:48;14.40;;;6.47;;
26211;SDS011;13951;49.516;6.094;2022-12-18T00:58:21;15.83;;;5.77;;
26211;SDS011;13951;49.516;6.094;2022-12-18T01:00:54;14.90;;;6.57;;
26211;SDS011;13951;49.516;6.094;2022-12-18T01:03:27;9.87;;;4.17;;
26211;SDS011;13951;49.516;6.094;2022-12-18T01:06:05;13.50;;;5.63;;
26211;SDS011;13951;49.516;6.094;2022-12-18T01:08:38;9.97;;;5.00;;
26211;SDS011;13951;49.516;6.094;2022-12-18T01:11:16;12.63;;;5.30;;
26211;SDS011;13951;49.516;6.094;2022-12-18T01:13:49;11.50;;;5.07;;
26211;SDS011;13951;49.516;6.094;2022-12-18T01:16:22;9.60;;;4.17;;
26211;SDS011;13951;49.516;6.094;2022-12-18T01:18:55;6.97;;;4.13;;
26211;SDS011;13951;49.516;6.094;2022-12-18T01:21:31;7.77;;;4.03;;
26211;SDS011;13951;49.516;6.094;2022-12-18T01:24:10;9.40;;;4.93;;
26211;SDS011;13951;49.516;6.094;2022-12-18T01:26:44;8.03;;;4.27;;
26211;SDS011;13951;49.516;6.094;2022-12-18T01:29:19;8.00;;;4.20;;
26211;SDS011;13951;49.516;6.094;2022-12-18T01:31:54;13.77;;;4.63;;
26211;SDS011;13951;49.516;6.094;2022-12-18T01:34:27;11.97;;;4.67;;
26211;SDS011;13951;49.516;6.094;2022-12-18T01:37:02;8.70;;;4.10;;
26211;SDS011;13951;49.516;6.094;2022-12-18T01:39:35;8.00;;;4.07;;
26211;SDS011;13951;49.516;6.094;2022-12-18T01:42:09;10.50;;;4.63;;
26211;SDS011;13951;49.516;6.094;2022-12-18T01:50:06;7.13;;;3.43;;
26211;SDS011;13951;49.516;6.094;2022-12-18T01:52:51;19.17;;;4.50;;
26211;SDS011;13951;49.516;6.094;2022-12-18T01:55:26;7.67;;;3.60;;
26211;SDS011;13951;49.516;6.094;2022-12-18T01:58:00;11.20;;;4.53;;
26211;SDS011;13951;49.516;6.094;2022-12-18T02:00:34;8.10;;;4.60;;
26211;SDS011;13951;49.516;6.094;2022-12-18T02:03:07;8.00;;;3.67;;
26211;SDS011;13951;49.516;6.094;2022-12-18T02:05:44;7.70;;;3.63;;
26211;SDS011;13951;49.516;6.094;2022-12-18T02:08:44;9.07;;;4.43;;
26211;SDS011;13951;49.516;6.094;2022-12-18T02:13:59;7.40;;;3.63;;
26211;SDS011;13951;49.516;6.094;2022-12-18T02:19:23;8.60;;;4.37;;
26211;SDS011;13951;49.516;6.094;2022-12-18T02:22:21;10.53;;;4.10;;
26211;SDS011;13951;49.516;6.094;2022-12-18T02:27:49;8.43;;;3.40;;
26211;SDS011;13951;49.516;6.094;2022-12-18T02:30:25;5.77;;;3.30;;
26211;SDS011;13951;49.516;6.094;2022-12-18T02:32:59;10.33;;;3.53;;
26211;SDS011;13951;49.516;6.094;2022-12-18T02:35:34;9.50;;;4.70;;
26211;SDS011;13951;49.516;6.094;2022-12-18T02:38:08;11.20;;;4.57;;
26211;SDS011;13951;49.516;6.094;2022-12-18T02:40:43;10.43;;;4.60;;
26211;SDS011;13951;49.516;6.094;2022-12-18T02:43:18;8.93;;;3.60;;
26211;SDS011;13951;49.516;6.094;2022-12-18T02:45:53;11.07;;;4.77;;
26211;SDS011;13951;49.516;6.094;2022-12-18T02:48:31;4.87;;;3.20;;
26211;SDS011;13951;49.516;6.094;2022-12-18T02:51:11;6.50;;;3.90;;
26211;SDS011;13951;49.516;6.094;2022-12-18T02:53:53;8.93;;;3.73;;
26211;SDS011;13951;49.516;6.094;2022-12-18T02:56:30;7.10;;;3.83;;
26211;SDS011;13951;49.516;6.094;2022-12-18T02:59:07;5.73;;;3.33;;
26211;SDS011;13951;49.516;6.094;2022-12-18T03:04:30;9.93;;;4.40;;
26211;SDS011;13951;49.516;6.094;2022-12-18T03:07:09;7.00;;;2.90;;
26211;SDS011;13951;49.516;6.094;2022-12-18T03:09:44;8.57;;;3.93;;
26211;SDS011;13951;49.516;6.094;2022-12-18T03:12:33;4.60;;;3.07;;
26211;SDS011;13951;49.516;6.094;2022-12-18T03:15:09;15.70;;;7.23;;
26211;SDS011;13951;49.516;6.094;2022-12-18T03:17:52;11.90;;;4.87;;
26211;SDS011;13951;49.516;6.094;2022-12-18T03:20:30;5.37;;;3.43;;
26211;SDS011;13951;49.516;6.094;2022-12-18T03:23:06;10.20;;;4.50;;
26211;SDS011;13951;49.516;6.094;2022-12-18T03:25:40;9.60;;;3.63;;
26211;SDS011;13951;49.516;6.094;2022-12-18T03:28:15;7.70;;;4.63;;
26211;SDS011;13951;49.516;6.094;2022-12-18T03:30:52;4.53;;;2.97;;
26211;SDS011;13951;49.516;6.094;2022-12-18T03:33:30;11.30;;;4.60;;
26211;SDS011;13951;49.516;6.094;2022-12-18T03:36:05;6.10;;;3.47;;
26211;SDS011;13951;49.516;6.094;2022-12-18T03:38:38;6.57;;;3.83;;
26211;SDS011;13951;49.516;6.094;2022-12-18T03:41:23;7.70;;;3.77;;
26211;SDS011;13951;49.516;6.094;2022-12-18T03:44:35;10.17;;;4.93;;
26211;SDS011;13951;49.516;6.094;2022-12-18T03:47:17;6.87;;;3.43;;
26211;SDS011;13951;49.516;6.094;2022-12-18T03:52:48;7.70;;;3.87;;
26211;SDS011;13951;49.516;6.094;2022-12-18T03:55:23;9.93;;;3.60;;
26211;SDS011;13951;49.516;6.094;2022-12-18T03:58:03;5.90;;;3.53;;
26211;SDS011;13951;49.516;6.094;2022-12-18T04:00:48;4.67;;;3.13;;
26211;SDS011;13951;49.516;6.094;2022-12-18T04:03:22;8.40;;;3.10;;
26211;SDS011;13951;49.516;6.094;2022-12-18T04:06:10;3.90;;;2.67;;
26211;SDS011;13951;49.516;6.094;2022-12-18T04:08:45;4.70;;;2.77;;
26211;SDS011;13951;49.516;6.094;2022-12-18T04:11:22;7.20;;;3.33;;
26211;SDS011;13951;49.516;6.094;2022-12-18T04:13:56;8.17;;;3.43;;
26211;SDS011;13951;49.516;6.094;2022-12-18T04:16:29;4.77;;;3.33;;
26211;SDS011;13951;49.516;6.094;2022-12-18T04:19:06;6.57;;;2.47;;
26211;SDS011;13951;49.516;6.094;2022-12-18T04:21:43;8.60;;;4.33;;
26211;SDS011;13951;49.516;6.094;2022-12-18T04:24:18;8.10;;;3.37;;
26211;SDS011;13951;49.516;6.094;2022-12-18T04:27:02;7.30;;;3.40;;
26211;SDS011;13951;49.516;6.094;2022-12-18T04:29:38;5.20;;;2.93;;
26211;SDS011;13951;49.516;6.094;2022-12-18T04:32:11;7.53;;;3.87;;
26211;SDS011;13951;49.516;6.094;2022-12-18T04:34:47;5.03;;;2.67;;
26211;SDS011;13951;49.516;6.094;2022-12-18T04:37:20;6.10;;;3.27;;
26211;SDS011;13951;49.516;6.094;2022-12-18T04:39:54;10.27;;;3.67;;
26211;SDS011;13951;49.516;6.094;2022-12-18T04:42:35;7.43;;;2.87;;
26211;SDS011;13951;49.516;6.094;2022-12-18T04:45:08;6.10;;;3.43;;
26211;SDS011;13951;49.516;6.094;2022-12-18T04:47:41;4.70;;;3.13;;
26211;SDS011;13951;49.516;6.094;2022-12-18T04:50:14;8.57;;;3.80;;
26211;SDS011;13951;49.516;6.094;2022-12-18T04:52:50;4.53;;;3.33;;
26211;SDS011;13951;49.516;6.094;2022-12-18T04:55:23;7.97;;;3.70;;
26211;SDS011;13951;49.516;6.094;2022-12-18T04:57:58;5.57;;;3.53;;
26211;SDS011;13951;49.516;6.094;2022-12-18T05:00:31;6.53;;;3.10;;
26211;SDS011;13951;49.516;6.094;2022-12-18T05:03:04;3.70;;;2.57;;
26211;SDS011;13951;49.516;6.094;2022-12-18T05:05:37;5.47;;;2.50;;
26211;SDS011;13951;49.516;6.094;2022-12-18T05:08:10;3.47;;;2.90;;
26211;SDS011;13951;49.516;6.094;2022-12-18T05:10:43;7.87;;;3.20;;
26211;SDS011;13951;49.516;6.094;2022-12-18T05:13:16;4.40;;;2.67;;
26211;SDS011;13951;49.516;6.094;2022-12-18T05:15:53;11.17;;;3.70;;
26211;SDS011;13951;49.516;6.094;2022-12-18T05:18:26;3.70;;;2.73;;
26211;SDS011;13951;49.516;6.094;2022-12-18T05:20:59;3.90;;;2.77;;
26211;SDS011;13951;49.516;6.094;2022-12-18T05:23:34;9.17;;;3.40;;
26211;SDS011;13951;49.516;6.094;2022-12-18T05:26:14;6.67;;;3.97;;
26211;SDS011;13951;49.516;6.094;2022-12-18T05:28:48;4.50;;;2.40;;
26211;SDS011;13951;49.516;6.094;2022-12-18T05:31:21;4.13;;;3.10;;
26211;SDS011;13951;49.516;6.094;2022-12-18T05:33:54;7.20;;;4.37;;
26211;SDS011;13951;49.516;6.094;2022-12-18T05:36:27;8.47;;;4.30;;
26211;SDS011;13951;49.516;6.094;2022-12-18T05:39:00;6.37;;;3.63;;
26211;SDS011;13951;49.516;6.094;2022-12-18T05:41:33;12.27;;;5.90;;
26211;SDS011;13951;49.516;6.094;2022-12-18T05:44:06;7.93;;;4.30;;
26211;SDS011;13951;49.516;6.094;2022-12-18T05:46:39;10.13;;;4.43;;
26211;SDS011;13951;49.516;6.094;2022-12-18T05:49:15;12.93;;;5.87;;
26211;SDS011;13951;49.516;6.094;2022-12-18T05:51:48;9.53;;;3.43;;
26211;SDS011;13951;49.516;6.094;2022-12-18T05:54:21;5.90;;;3.60;;
26211;SDS011;13951;49.516;6.094;2022-12-18T05:56:54;8.63;;;4.03;;
26211;SDS011;13951;49.516;6.094;2022-12-18T05:59:27;9.03;;;4.47;;
26211;SDS011;13951;49.516;6.094;2022-12-18T06:02:00;9.40;;;4.77;;
26211;SDS011;13951;49.516;6.094;2022-12-18T06:04:33;9.77;;;4.17;;
26211;SDS011;13951;49.516;6.094;2022-12-18T06:07:06;8.00;;;4.43;;
26211;SDS011;13951;49.516;6.094;2022-12-18T06:09:40;14.17;;;5.37;;
26211;SDS011;13951;49.516;6.094;2022-12-18T06:12:13;6.50;;;5.10;;
26211;SDS011;13951;49.516;6.094;2022-12-18T06:14:46;5.87;;;3.70;;
26211;SDS011;13951;49.516;6.094;2022-12-18T06:17:19;9.20;;;4.40;;
26211;SDS011;13951;49.516;6.094;2022-12-18T06:19:52;9.57;;;4.57;;
26211;SDS011;13951;49.516;6.094;2022-12-18T06:22:25;6.40;;;3.70;;
26211;SDS011;13951;49.516;6.094;2022-12-18T06:24:58;18.40;;;6.23;;
26211;SDS011;13951;49.516;6.094;2022-12-18T06:27:31;7.37;;;5.07;;
26211;SDS011;13951;49.516;6.094;2022-12-18T06:30:05;13.23;;;5.13;;
26211;SDS011;13951;49.516;6.094;2022-12-18T06:32:38;13.40;;;4.93;;
26211;SDS011;13951;49.516;6.094;2022-12-18T06:35:11;11.17;;;6.00;;
26211;SDS011;13951;49.516;6.094;2022-12-18T06:37:44;11.83;;;5.20;;
26211;SDS011;13951;49.516;6.094;2022-12-18T06:40:17;8.10;;;4.63;;
26211;SDS011;13951;49.516;6.094;2022-12-18T06:42:50;12.33;;;4.67;;
26211;SDS011;13951;49.516;6.094;2022-12-18T06:45:24;10.17;;;4.23;;
26211;SDS011;13951;49.516;6.094;2022-12-18T06:47:57;9.13;;;5.33;;
26211;SDS011;13951;49.516;6.094;2022-12-18T06:50:30;12.80;;;4.90;;
26211;SDS011;13951;49.516;6.094;2022-12-18T06:53:03;7.47;;;3.83;;
26211;SDS011;13951;49.516;6.094;2022-12-18T06:55:38;7.97;;;3.77;;
26211;SDS011;13951;49.516;6.094;2022-12-18T06:58:12;8.23;;;4.60;;
26211;SDS011;13951;49.516;6.094;2022-12-18T07:00:45;7.90;;;4.70;;
26211;SDS011;13951;49.516;6.094;2022-12-18T07:03:18;7.53;;;4.37;;
26211;SDS011;13951;49.516;6.094;2022-12-18T07:05:51;11.13;;;6.33;;
26211;SDS011;13951;49.516;6.094;2022-12-18T07:08:24;14.70;;;6.23;;
26211;SDS011;13951;49.516;6.094;2022-12-18T07:10:57;23.75;;;11.27;;
26211;SDS011;13951;49.516;6.094;2022-12-18T07:13:30;13.03;;;6.37;;
26211;SDS011;13951;49.516;6.094;2022-12-18T07:16:04;20.97;;;7.83;;
26211;SDS011;13951;49.516;6.094;2022-12-18T07:18:47;12.97;;;6.13;;
26211;SDS011;13951;49.516;6.094;2022-12-18T07:21:20;13.90;;;4.23;;
26211;SDS011;13951;49.516;6.094;2022-12-18T07:23:53;7.93;;;4.77;;
26211;SDS011;13951;49.516;6.094;2022-12-18T07:26:26;11.73;;;4.70;;
26211;SDS011;13951;49.516;6.094;2022-12-18T07:28:59;13.30;;;5.70;;
26211;SDS011;13951;49.516;6.094;2022-12-18T07:31:32;14.80;;;5.73;;
26211;SDS011;13951;49.516;6.094;2022-12-18T07:34:09;8.70;;;4.37;;
26211;SDS011;13951;49.516;6.094;2022-12-18T07:36:42;19.58;;;7.88;;
26211;SDS011;13951;49.516;6.094;2022-12-18T07:39:15;13.20;;;5.57;;
26211;SDS011;13951;49.516;6.094;2022-12-18T07:41:48;6.27;;;4.20;;
26211;SDS011;13951;49.516;6.094;2022-12-18T07:44:44;12.57;;;5.73;;
26211;SDS011;13951;49.516;6.094;2022-12-18T07:47:18;8.50;;;5.93;;
26211;SDS011;13951;49.516;6.094;2022-12-18T07:49:51;14.43;;;5.13;;
26211;SDS011;13951;49.516;6.094;2022-12-18T07:52:24;9.97;;;4.07;;
26211;SDS011;13951;49.516;6.094;2022-12-18T07:54:57;10.53;;;5.37;;
26211;SDS011;13951;49.516;6.094;2022-12-18T07:57:30;11.67;;;5.93;;
26211;SDS011;13951;49.516;6.094;2022-12-18T08:00:23;7.37;;;4.23;;
26211;SDS011;13951;49.516;6.094;2022-12-18T08:02:56;10.73;;;5.10;;
26211;SDS011;13951;49.516;6.094;2022-12-18T08:05:29;15.00;;;6.60;;
26211;SDS011;13951;49.516;6.094;2022-12-18T08:08:03;7.53;;;5.03;;
26211;SDS011;13951;49.516;6.094;2022-12-18T08:10:37;13.33;;;6.27;;
26211;SDS011;13951;49.516;6.094;2022-12-18T08:13:10;14.10;;;6.33;;
26211;SDS011;13951;49.516;6.094;2022-12-18T08:15:43;14.23;;;6.70;;
26211;SDS011;13951;49.516;6.094;2022-12-18T08:18:16;7.40;;;3.80;;
26211;SDS011;13951;49.516;6.094;2022-12-18T08:20:49;10.27;;;5.03;;
26211;SDS011;13951;49.516;6.094;2022-12-18T08:23:22;12.47;;;5.80;;
26211;SDS011;13951;49.516;6.094;2022-12-18T08:26:13;12.40;;;5.37;;
26211;SDS011;13951;49.516;6.094;2022-12-18T08:28:46;8.27;;;5.10;;
26211;SDS011;13951;49.516;6.094;2022-12-18T08:31:20;14.77;;;5.77;;
26211;SDS011;13951;49.516;6.094;2022-12-18T08:33:55;14.47;;;6.77;;
26211;SDS011;13951;49.516;6.094;2022-12-18T08:36:28;8.87;;;5.30;;
26211;SDS011;13951;49.516;6.094;2022-12-18T08:39:01;17.67;;;7.07;;
26211;SDS011;13951;49.516;6.094;2022-12-18T08:41:34;12.27;;;6.30;;
26211;SDS011;13951;49.516;6.094;2022-12-18T08:44:07;9.27;;;4.73;;
26211;SDS011;13951;49.516;6.094;2022-12-18T08:46:59;13.50;;;6.33;;
26211;SDS011;13951;49.516;6.094;2022-12-18T08:49:32;13.50;;;6.30;;
26211;SDS011;13951;49.516;6.094;2022-12-18T08:52:06;10.77;;;6.13;;
26211;SDS011;13951;49.516;6.094;2022-12-18T08:54:39;12.23;;;6.40;;
26211;SDS011;13951;49.516;6.094;2022-12-18T08:57:12;6.60;;;3.33;;
26211;SDS011;13951;49.516;6.094;2022-12-18T08:59:45;10.70;;;5.80;;
26211;SDS011;13951;49.516;6.094;2022-12-18T09:02:18;13.03;;;6.40;;
26211;SDS011;13951;49.516;6.094;2022-12-18T09:04:51;15.27;;;6.33;;
26211;SDS011;13951;49.516;6.094;2022-12-18T09:07:28;8.97;;;3.93;;
26211;SDS011;13951;49.516;6.094;2022-12-18T09:10:01;15.90;;;5.77;;
26211;SDS011;13951;49.516;6.094;2022-12-18T09:12:34;10.07;;;6.03;;
26211;SDS011;13951;49.516;6.094;2022-12-18T09:15:07;11.43;;;5.57;;
26211;SDS011;13951;49.516;6.094;2022-12-18T09:17:40;7.23;;;3.80;;
26211;SDS011;13951;49.516;6.094;2022-12-18T09:20:13;14.40;;;5.37;;
26211;SDS011;13951;49.516;6.094;2022-12-18T09:22:47;19.83;;;6.23;;
26211;SDS011;13951;49.516;6.094;2022-12-18T09:25:21;8.30;;;3.80;;
26211;SDS011;13951;49.516;6.094;2022-12-18T09:27:54;10.50;;;5.13;;
26211;SDS011;13951;49.516;6.094;2022-12-18T09:30:27;14.77;;;6.37;;
26211;SDS011;13951;49.516;6.094;2022-12-18T09:33:00;16.60;;;4.23;;
26211;SDS011;13951;49.516;6.094;2022-12-18T09:35:40;14.37;;;5.67;;
26211;SDS011;13951;49.516;6.094;2022-12-18T09:38:18;14.73;;;5.87;;
26211;SDS011;13951;49.516;6.094;2022-12-18T09:40:52;11.50;;;5.33;;
26211;SDS011;13951;49.516;6.094;2022-12-18T09:43:27;9.23;;;4.70;;
26211;SDS011;13951;49.516;6.094;2022-12-18T09:46:03;12.23;;;4.07;;
26211;SDS011;13951;49.516;6.094;2022-12-18T09:48:38;11.50;;;6.23;;
26211;SDS011;13951;49.516;6.094;2022-12-18T09:51:17;10.40;;;4.97;;
26211;SDS011;13951;49.516;6.094;2022-12-18T09:54:04;13.13;;;6.03;;
26211;SDS011;13951;49.516;6.094;2022-12-18T09:56:40;11.47;;;7.57;;
26211;SDS011;13951;49.516;6.094;2022-12-18T09:59:23;10.60;;;4.60;;
26211;SDS011;13951;49.516;6.094;2022-12-18T10:01:57;17.63;;;7.80;;
26211;SDS011;13951;49.516;6.094;2022-12-18T10:04:31;17.97;;;7.67;;
26211;SDS011;13951;49.516;6.094;2022-12-18T10:07:10;17.33;;;6.87;;
26211;SDS011;13951;49.516;6.094;2022-12-18T10:09:58;22.67;;;10.00;;
26211;SDS011;13951;49.516;6.094;2022-12-18T10:12:39;25.37;;;8.20;;
26211;SDS011;13951;49.516;6.094;2022-12-18T10:15:19;12.70;;;7.10;;
26211;SDS011;13951;49.516;6.094;2022-12-18T10:17:59;8.20;;;5.20;;
26211;SDS011;13951;49.516;6.094;2022-12-18T10:20:34;9.80;;;5.37;;
26211;SDS011;13951;49.516;6.094;2022-12-18T10:23:32;8.43;;;5.53;;
26211;SDS011;13951;49.516;6.094;2022-12-18T10:26:07;10.93;;;6.43;;
26211;SDS011;13951;49.516;6.094;2022-12-18T10:28:40;5.87;;;3.93;;
26211;SDS011;13951;49.516;6.094;2022-12-18T10:31:22;13.27;;;5.63;;
26211;SDS011;13951;49.516;6.094;2022-12-18T10:33:55;16.83;;;6.20;;
26211;SDS011;13951;49.516;6.094;2022-12-18T10:36:28;14.27;;;5.37;;
26211;SDS011;13951;49.516;6.094;2022-12-18T10:42:11;13.87;;;6.37;;
26211;SDS011;13951;49.516;6.094;2022-12-18T10:44:48;18.53;;;7.63;;
26211;SDS011;13951;49.516;6.094;2022-12-18T10:47:33;15.57;;;5.73;;
26211;SDS011;13951;49.516;6.094;2022-12-18T10:50:10;11.63;;;6.27;;
26211;SDS011;13951;49.516;6.094;2022-12-18T10:52:55;18.63;;;7.93;;
26211;SDS011;13951;49.516;6.094;2022-12-18T10:55:32;16.00;;;6.87;;
26211;SDS011;13951;49.516;6.094;2022-12-18T10:58:26;15.60;;;7.37;;
26211;SDS011;13951;49.516;6.094;2022-12-18T11:03:45;20.30;;;6.87;;
26211;SDS011;13951;49.516;6.094;2022-12-18T11:06:19;18.57;;;7.40;;
26211;SDS011;13951;49.516;6.094;2022-12-18T11:09:00;11.90;;;6.27;;
26211;SDS011;13951;49.516;6.094;2022-12-18T11:11:40;14.30;;;6.23;;
26211;SDS011;13951;49.516;6.094;2022-12-18T11:14:15;18.13;;;8.10;;
26211;SDS011;13951;49.516;6.094;2022-12-18T11:16:51;13.03;;;6.27;;
26211;SDS011;13951;49.516;6.094;2022-12-18T11:19:44;16.17;;;7.13;;
26211;SDS011;13951;49.516;6.094;2022-12-18T11:22:21;17.73;;;7.20;;
26211;SDS011;13951;49.516;6.094;2022-12-18T11:24:57;14.83;;;7.83;;
26211;SDS011;13951;49.516;6.094;2022-12-18T11:27:52;17.60;;;7.60;;
26211;SDS011;13951;49.516;6.094;2022-12-18T11:30:33;17.07;;;7.97;;
26211;SDS011;13951;49.516;6.094;2022-12-18T11:33:14;34.67;;;15.63;;
26211;SDS011;13951;49.516;6.094;2022-12-18T11:38:26;16.40;;;8.13;;
26211;SDS011;13951;49.516;6.094;2022-12-18T11:41:05;20.03;;;9.23;;
26211;SDS011;13951;49.516;6.094;2022-12-18T11:43:54;19.57;;;7.90;;
26211;SDS011;13951;49.516;6.094;2022-12-18T11:46:32;13.93;;;6.60;;
26211;SDS011;13951;49.516;6.094;2022-12-18T11:49:22;13.67;;;7.73;;
26211;SDS011;13951;49.516;6.094;2022-12-18T11:52:03;17.80;;;8.43;;
26211;SDS011;13951;49.516;6.094;2022-12-18T11:54:36;13.73;;;7.80;;
26211;SDS011;13951;49.516;6.094;2022-12-18T11:59:54;18.20;;;8.20;;
26211;SDS011;13951;49.516;6.094;2022-12-18T12:02:41;19.33;;;9.50;;
26211;SDS011;13951;49.516;6.094;2022-12-18T12:10:49;16.90;;;7.57;;
26211;SDS011;13951;49.516;6.094;2022-12-18T12:13:48;23.50;;;9.80;;
26211;SDS011;13951;49.516;6.094;2022-12-18T12:16:34;14.03;;;7.97;;
26211;SDS011;13951;49.516;6.094;2022-12-18T12:19:18;18.37;;;9.60;;
26211;SDS011;13951;49.516;6.094;2022-12-18T12:21:59;21.23;;;7.53;;
26211;SDS011;13951;49.516;6.094;2022-12-18T12:30:19;21.17;;;7.90;;
26211;SDS011;13951;49.516;6.094;2022-12-18T12:32:58;21.97;;;8.77;;
26211;SDS011;13951;49.516;6.094;2022-12-18T12:38:11;16.57;;;8.20;;
26211;SDS011;13951;49.516;6.094;2022-12-18T12:40:47;20.27;;;7.03;;
26211;SDS011;13951;49.516;6.094;2022-12-18T12:43:41;21.33;;;9.27;;
26211;SDS011;13951;49.516;6.094;2022-12-18T12:46:22;14.83;;;8.13;;
26211;SDS011;13951;49.516;6.094;2022-12-18T12:48:57;17.60;;;8.27;;
26211;SDS011;13951;49.516;6.094;2022-12-18T12:51:34;19.30;;;8.67;;
26211;SDS011;13951;49.516;6.094;2022-12-18T12:54:14;22.73;;;10.00;;
26211;SDS011;13951;49.516;6.094;2022-12-18T12:56:50;8.33;;;4.83;;
26211;SDS011;13951;49.516;6.094;2022-12-18T12:59:41;16.03;;;7.63;;
26211;SDS011;13951;49.516;6.094;2022-12-18T13:02:20;18.60;;;9.23;;
26211;SDS011;13951;49.516;6.094;2022-12-18T13:04:58;15.70;;;7.27;;
26211;SDS011;13951;49.516;6.094;2022-12-18T13:07:37;17.13;;;7.57;;
26211;SDS011;13951;49.516;6.094;2022-12-18T13:13:11;24.93;;;7.13;;
26211;SDS011;13951;49.516;6.094;2022-12-18T13:15:48;23.23;;;9.20;;
26211;SDS011;13951;49.516;6.094;2022-12-18T13:18:23;13.90;;;7.43;;
26211;SDS011;13951;49.516;6.094;2022-12-18T13:23:35;19.70;;;8.43;;
26211;SDS011;13951;49.516;6.094;2022-12-18T13:34:16;16.20;;;7.27;;
26211;SDS011;13951;49.516;6.094;2022-12-18T13:39:52;19.03;;;8.47;;
26211;SDS011;13951;49.516;6.094;2022-12-18T13:45:37;10.63;;;6.00;;
26211;SDS011;13951;49.516;6.094;2022-12-18T13:48:32;26.67;;;8.87;;
26211;SDS011;13951;49.516;6.094;2022-12-18T13:51:05;18.73;;;8.47;;
26211;SDS011;13951;49.516;6.094;2022-12-18T13:53:42;18.30;;;8.37;;
26211;SDS011;13951;49.516;6.094;2022-12-18T13:56:23;20.60;;;9.13;;
26211;SDS011;13951;49.516;6.094;2022-12-18T13:59:04;27.33;;;11.23;;
26211;SDS011;13951;49.516;6.094;2022-12-18T14:01:45;17.87;;;7.90;;
26211;SDS011;13951;49.516;6.094;2022-12-18T14:04:29;42.13;;;17.13;;
26211;SDS011;13951;49.516;6.094;2022-12-18T14:07:04;21.43;;;10.63;;
26211;SDS011;13951;49.516;6.094;2022-12-18T14:09:40;22.00;;;10.20;;
26211;SDS011;13951;49.516;6.094;2022-12-18T14:12:24;24.97;;;10.10;;
26211;SDS011;13951;49.516;6.094;2022-12-18T14:20:47;18.80;;;7.60;;
26211;SDS011;13951;49.516;6.094;2022-12-18T14:23:40;20.03;;;9.27;;
26211;SDS011;13951;49.516;6.094;2022-12-18T14:26:19;16.17;;;7.53;;
26211;SDS011;13951;49.516;6.094;2022-12-18T14:28:54;21.97;;;8.93;;
26211;SDS011;13951;49.516;6.094;2022-12-18T14:31:28;19.03;;;8.87;;
26211;SDS011;13951;49.516;6.094;2022-12-18T14:34:01;27.37;;;9.43;;
26211;SDS011;13951;49.516;6.094;2022-12-18T14:36:34;22.93;;;8.97;;
26211;SDS011;13951;49.516;6.094;2022-12-18T14:39:11;23.02;;;9.35;;
26211;SDS011;13951;49.516;6.094;2022-12-18T14:41:49;24.33;;;8.93;;
26211;SDS011;13951;49.516;6.094;2022-12-18T14:44:22;20.17;;;9.57;;
26211;SDS011;13951;49.516;6.094;2022-12-18T14:46:55;23.57;;;10.67;;
26211;SDS011;13951;49.516;6.094;2022-12-18T14:49:34;16.37;;;9.00;;
26211;SDS011;13951;49.516;6.094;2022-12-18T14:52:18;28.70;;;10.10;;
26211;SDS011;13951;49.516;6.094;2022-12-18T14:54:54;23.37;;;8.43;;
26211;SDS011;13951;49.516;6.094;2022-12-18T14:57:29;24.67;;;9.77;;
26211;SDS011;13951;49.516;6.094;2022-12-18T15:00:10;24.70;;;10.47;;
26211;SDS011;13951;49.516;6.094;2022-12-18T15:02:51;31.00;;;14.00;;
26211;SDS011;13951;49.516;6.094;2022-12-18T15:05:28;23.43;;;10.87;;
26211;SDS011;13951;49.516;6.094;2022-12-18T15:08:02;23.87;;;9.10;;
26211;SDS011;13951;49.516;6.094;2022-12-18T15:10:35;19.47;;;8.67;;
26211;SDS011;13951;49.516;6.094;2022-12-18T15:13:22;23.47;;;9.67;;
26211;SDS011;13951;49.516;6.094;2022-12-18T15:15:57;23.43;;;11.00;;
26211;SDS011;13951;49.516;6.094;2022-12-18T15:18:32;21.70;;;9.20;;
26211;SDS011;13951;49.516;6.094;2022-12-18T15:21:08;16.93;;;7.83;;
26211;SDS011;13951;49.516;6.094;2022-12-18T15:23:49;20.43;;;8.97;;
26211;SDS011;13951;49.516;6.094;2022-12-18T15:26:23;27.30;;;10.03;;
26211;SDS011;13951;49.516;6.094;2022-12-18T15:28:56;18.03;;;9.20;;
26211;SDS011;13951;49.516;6.094;2022-12-18T15:31:34;17.57;;;7.30;;
26211;SDS011;13951;49.516;6.094;2022-12-18T15:36:40;23.67;;;8.30;;
26211;SDS011;13951;49.516;6.094;2022-12-18T15:39:13;22.67;;;8.97;;
26211;SDS011;13951;49.516;6.094;2022-12-18T15:41:46;21.47;;;9.63;;
26211;SDS011;13951;49.516;6.094;2022-12-18T15:44:38;19.40;;;9.00;;
26211;SDS011;13951;49.516;6.094;2022-12-18T15:47:11;25.50;;;9.60;;
26211;SDS011;13951;49.516;6.094;2022-12-18T15:49:45;22.37;;;8.77;;
26211;SDS011;13951;49.516;6.094;2022-12-18T15:52:18;23.27;;;9.73;;
26211;SDS011;13951;49.516;6.094;2022-12-18T15:54:57;20.13;;;8.53;;
26211;SDS011;13951;49.516;6.094;2022-12-18T15:57:49;18.17;;;7.87;;
26211;SDS011;13951;49.516;6.094;2022-12-18T16:00:22;22.73;;;9.53;;
26211;SDS011;13951;49.516;6.094;2022-12-18T16:02:55;25.37;;;10.53;;
26211;SDS011;13951;49.516;6.094;2022-12-18T16:05:29;25.13;;;10.10;;
26211;SDS011;13951;49.516;6.094;2022-12-18T16:08:02;41.00;;;18.63;;
26211;SDS011;13951;49.516;6.094;2022-12-18T16:10:35;30.70;;;11.17;;
26211;SDS011;13951;49.516;6.094;2022-12-18T16:13:11;28.30;;;11.07;;
26211;SDS011;13951;49.516;6.094;2022-12-18T16:15:45;21.17;;;8.67;;
26211;SDS011;13951;49.516;6.094;2022-12-18T16:18:18;25.27;;;9.60;;
26211;SDS011;13951;49.516;6.094;2022-12-18T16:20:51;20.23;;;9.17;;
26211;SDS011;13951;49.516;6.094;2022-12-18T16:23:24;37.97;;;16.52;;
26211;SDS011;13951;49.516;6.094;2022-12-18T16:25:58;30.73;;;12.40;;
26211;SDS011;13951;49.516;6.094;2022-12-18T16:28:31;21.83;;;10.60;;
26211;SDS011;13951;49.516;6.094;2022-12-18T16:31:04;25.53;;;9.70;;
26211;SDS011;13951;49.516;6.094;2022-12-18T16:33:37;22.03;;;9.37;;
26211;SDS011;13951;49.516;6.094;2022-12-18T16:36:11;20.83;;;9.90;;
26211;SDS011;13951;49.516;6.094;2022-12-18T16:38:46;27.67;;;10.87;;
26211;SDS011;13951;49.516;6.094;2022-12-18T16:41:20;23.03;;;10.90;;
26211;SDS011;13951;49.516;6.094;2022-12-18T16:44:02;18.47;;;8.83;;
26211;SDS011;13951;49.516;6.094;2022-12-18T16:46:36;21.87;;;9.53;;